Terminal Aerodrome Forecast
Issued by NWS Billings, MT

Home | Current Version | Previous Version | Graphics & Text | Print | Product List | Glossary On
Versions: 1 2 3 4 5 6 7 8 9 10 11 12 13 14
000
FTUS45 KBYZ 132106 AAA
TAFMLS
TAF AMD
KMLS 132106Z 1321/1418 34015KT P6SM VCSH BKN045
     FM140200 33009KT P6SM FEW050=

USA.gov is the U.S. government's official web portal to all federal, state and local government web resources and services.